Time;durP1;ratioP1;P1;durP2;ratioP2;P2;SDS_P1;SDS_P2;PMS_P1;PMS_P2;Temp;Humidity;BMP_temperature;BMP_pressure;BME280_temperature;BME280_humidity;BME280_pressure;Samples;Min_cycle;Max_cycle;Signal;HPM_P1;HPM_P2
2021/01/18 00:00:28;;;;;;;8.20;7.30;;;1.60;98.50;;;;;;5041282;28;20232;-85
2021/01/18 00:02:55;;;;;;;8.60;7.23;;;1.50;98.70;;;;;;5053237;28;20618;-80
2021/01/18 00:05:22;;;;;;;8.53;7.47;;;1.50;98.90;;;;;;5043077;28;20230;-79
2021/01/18 00:07:50;;;;;;;8.83;7.53;;;1.60;98.90;;;;;;5042739;28;20221;-80
2021/01/18 00:10:18;;;;;;;7.50;6.53;;;1.60;99.00;;;;;;5039820;28;20227;-80
2021/01/18 00:12:48;;;;;;;7.50;6.60;;;1.50;98.90;;;;;;5044445;28;20213;-80
2021/01/18 00:15:17;;;;;;;7.13;6.43;;;1.50;98.90;;;;;;5045375;28;20251;-80
2021/01/18 00:17:43;;;;;;;7.50;6.80;;;1.60;99.00;;;;;;5045240;28;20331;-83
2021/01/18 00:20:12;;;;;;;6.90;6.20;;;1.50;98.90;;;;;;5046909;28;20629;-80
2021/01/18 00:22:40;;;;;;;7.00;6.30;;;1.60;99.00;;;;;;5041994;28;20202;-80
2021/01/18 00:25:09;;;;;;;7.17;6.47;;;1.60;98.90;;;;;;5044354;28;20225;-82
2021/01/18 00:27:36;;;;;;;7.23;6.53;;;1.60;99.00;;;;;;5040995;28;20229;-83
2021/01/18 00:30:07;;;;;;;7.03;6.33;;;1.60;98.90;;;;;;5041923;28;20225;-79
2021/01/18 00:32:33;;;;;;;7.00;6.30;;;1.60;98.90;;;;;;5040863;28;20655;-84
2021/01/18 00:34:59;;;;;;;7.30;6.03;;;1.60;98.70;;;;;;5042722;28;20646;-82
2021/01/18 00:37:26;;;;;;;6.40;5.80;;;1.60;98.90;;;;;;5046240;28;20217;-86
2021/01/18 00:39:53;;;;;;;6.17;5.57;;;1.50;98.80;;;;;;5039035;28;20226;-80
2021/01/18 00:42:20;;;;;;;5.40;4.90;;;1.70;98.70;;;;;;5045362;28;20193;-80
2021/01/18 00:44:47;;;;;;;6.40;5.80;;;1.70;98.10;;;;;;5041824;28;20237;-82
2021/01/18 00:47:13;;;;;;;6.10;5.50;;;1.70;97.90;;;;;;5048543;28;20609;-80
2021/01/18 00:49:40;;;;;;;5.80;5.20;;;1.70;98.00;;;;;;5047556;28;20222;-80
2021/01/18 00:52:06;;;;;;;5.30;4.80;;;1.70;98.10;;;;;;5042837;28;20203;-79
2021/01/18 00:54:34;;;;;;;5.67;5.07;;;1.80;98.10;;;;;;5038008;28;20225;-82
2021/01/18 00:57:00;;;;;;;5.57;5.03;;;1.80;97.80;;;;;;5045813;28;20736;-79
2021/01/18 00:59:26;;;;;;;6.03;5.07;;;1.70;97.90;;;;;;5036293;28;20229;-82
2021/01/18 01:01:53;;;;;;;6.10;5.50;;;1.80;97.70;;;;;;5044135;28;20241;-83
2021/01/18 01:04:19;;;;;;;5.70;5.20;;;1.80;97.50;;;;;;5047289;28;20628;-80
2021/01/18 01:06:45;;;;;;;6.50;5.10;;;1.80;97.80;;;;;;5042885;28;20233;-85
2021/01/18 01:09:11;;;;;;;5.37;4.87;;;1.80;97.70;;;;;;5044994;28;20218;-82
2021/01/18 01:11:44;;;;;;;5.40;4.90;;;1.70;97.70;;;;;;5044414;28;20708;-81
2021/01/18 01:14:11;;;;;;;5.03;4.53;;;1.80;97.80;;;;;;5053166;28;20344;-79
2021/01/18 01:16:37;;;;;;;6.23;5.03;;;1.90;97.50;;;;;;5047758;28;20195;-92
2021/01/18 01:19:04;;;;;;;5.60;4.93;;;1.80;97.20;;;;;;5060762;28;20304;-86
2021/01/18 01:21:30;;;;;;;4.50;4.10;;;1.90;97.10;;;;;;5044900;28;20206;-84
2021/01/18 01:23:57;;;;;;;5.20;4.70;;;1.90;97.10;;;;;;5041673;28;20304;-79
2021/01/18 01:26:23;;;;;;;4.97;4.47;;;1.80;97.00;;;;;;5048192;28;20209;-81
2021/01/18 01:28:50;;;;;;;4.90;4.40;;;1.80;97.20;;;;;;5040055;28;20697;-81
2021/01/18 01:31:17;;;;;;;4.73;4.23;;;1.80;97.40;;;;;;5044004;28;20301;-81
2021/01/18 01:33:43;;;;;;;5.33;4.40;;;1.90;97.00;;;;;;5045209;28;20698;-81
2021/01/18 01:36:10;;;;;;;4.77;4.27;;;1.90;97.30;;;;;;5038320;28;20690;-80
2021/01/18 01:38:36;;;;;;;7.40;4.70;;;1.90;96.80;;;;;;5045063;28;20224;-87
2021/01/18 01:41:04;;;;;;;7.03;4.63;;;1.80;97.00;;;;;;5043102;28;20928;-81
2021/01/18 01:43:30;;;;;;;5.77;4.80;;;1.70;97.20;;;;;;5042561;28;20201;-85
2021/01/18 01:45:57;;;;;;;5.30;4.80;;;1.70;97.50;;;;;;5042805;28;20296;-81
2021/01/18 01:48:25;;;;;;;4.67;4.13;;;1.70;97.50;;;;;;5034585;28;20225;-84
2021/01/18 01:50:52;;;;;;;4.80;4.30;;;1.80;97.50;;;;;;5039756;28;20213;-83
2021/01/18 01:53:23;;;;;;;4.33;3.93;;;1.80;97.10;;;;;;5042429;28;20303;-81
2021/01/18 01:55:50;;;;;;;4.90;4.40;;;1.80;97.20;;;;;;5041020;28;20583;-81
2021/01/18 01:58:17;;;;;;;5.17;4.23;;;1.90;97.00;;;;;;5041652;28;20285;-80
2021/01/18 02:00:43;;;;;;;5.73;4.37;;;1.80;97.20;;;;;;5038065;28;20224;-82
2021/01/18 02:03:12;;;;;;;7.03;4.20;;;1.80;97.00;;;;;;5037876;28;20250;-83
2021/01/18 02:05:40;;;;;;;4.60;4.20;;;1.90;97.00;;;;;;5038862;28;20240;-80
2021/01/18 02:08:07;;;;;;;4.70;3.83;;;2.00;97.10;;;;;;5042132;28;20232;-80
2021/01/18 02:10:35;;;;;;;4.50;4.10;;;1.90;96.80;;;;;;5040804;28;20221;-82
2021/01/18 02:13:05;;;;;;;5.87;4.50;;;1.90;96.80;;;;;;5042959;28;20676;-81
2021/01/18 02:15:41;;;;;;;4.50;4.03;;;1.90;97.00;;;;;;5036352;28;20757;-83
2021/01/18 02:18:45;;;;;;;4.20;3.80;;;2.00;96.40;;;;;;5049228;28;20624;-81
2021/01/18 02:21:41;;;;;;;4.40;3.90;;;2.00;96.30;;;;;;4986551;28;20229;-79
2021/01/18 02:24:48;;;;;;;4.93;4.43;;;2.00;96.70;;;;;;5035527;28;20214;-80
2021/01/18 02:27:55;;;;;;;5.73;4.20;;;2.00;96.50;;;;;;5043998;28;20232;-80
2021/01/18 02:30:48;;;;;;;4.23;3.83;;;2.00;96.70;;;;;;5039229;28;20231;-79
2021/01/18 02:33:30;;;;;;;4.43;3.80;;;2.00;96.60;;;;;;5037837;28;20255;-86
2021/01/18 02:36:17;;;;;;;4.73;3.97;;;2.00;96.70;;;;;;5042132;28;20199;-79
2021/01/18 02:38:55;;;;;;;4.90;4.40;;;2.10;96.50;;;;;;5036086;28;20229;-79
2021/01/18 02:41:33;;;;;;;4.97;4.47;;;2.10;96.40;;;;;;5040289;28;20194;-79
2021/01/18 02:44:05;;;;;;;5.57;4.33;;;2.10;96.70;;;;;;5048560;28;20763;-79
2021/01/18 02:46:33;;;;;;;4.80;3.90;;;2.10;96.50;;;;;;5037128;28;20198;-85
2021/01/18 02:49:01;;;;;;;5.57;4.30;;;2.00;96.70;;;;;;5047225;28;20226;-79
2021/01/18 02:51:29;;;;;;;4.93;4.17;;;2.00;96.90;;;;;;5053862;28;20278;-79
2021/01/18 02:53:57;;;;;;;4.70;4.30;;;2.00;96.90;;;;;;5055698;28;20231;-79
2021/01/18 02:56:26;;;;;;;5.03;4.43;;;2.10;96.60;;;;;;5050145;28;20598;-79
2021/01/18 02:58:54;;;;;;;6.47;5.53;;;2.10;96.60;;;;;;5048649;28;20221;-79
2021/01/18 03:01:48;;;;;;;5.27;4.77;;;2.10;96.50;;;;;;5050550;28;20195;-80
2021/01/18 03:04:24;;;;;;;6.00;5.30;;;2.10;96.60;;;;;;5045374;28;20321;-86
2021/01/18 03:06:57;;;;;;;6.07;5.47;;;2.10;96.20;;;;;;5052802;28;20639;-80
2021/01/18 03:09:30;;;;;;;6.77;5.87;;;2.00;96.40;;;;;;5051282;28;20221;-84
2021/01/18 03:12:04;;;;;;;8.10;6.03;;;2.00;96.50;;;;;;5048280;28;20203;-81
2021/01/18 03:14:37;;;;;;;8.83;5.77;;;2.10;96.40;;;;;;5044915;28;20230;-84
2021/01/18 03:17:05;;;;;;;6.27;5.63;;;2.10;96.20;;;;;;5040652;28;20558;-81
2021/01/18 03:19:41;;;;;;;9.60;5.90;;;2.00;96.30;;;;;;5041145;28;20244;-86
2021/01/18 03:22:09;;;;;;;7.10;5.83;;;2.00;96.50;;;;;;5054640;28;20216;-80
2021/01/18 03:24:36;;;;;;;7.63;5.63;;;1.90;96.60;;;;;;5041818;28;20217;-80
2021/01/18 03:27:03;;;;;;;8.50;5.70;;;1.80;96.70;;;;;;5047159;28;20601;-81
2021/01/18 03:29:29;;;;;;;7.47;5.93;;;1.90;96.70;;;;;;5047757;28;20225;-81
2021/01/18 03:31:56;;;;;;;9.23;5.83;;;1.90;96.40;;;;;;5047078;28;20743;-80
2021/01/18 03:34:22;;;;;;;6.33;5.73;;;1.80;96.80;;;;;;5048526;28;20235;-84
2021/01/18 03:36:49;;;;;;;7.93;5.50;;;1.90;96.80;;;;;;5046976;28;20210;-83
2021/01/18 03:39:16;;;;;;;8.20;5.43;;;2.00;96.70;;;;;;5051588;28;20225;-80
2021/01/18 03:41:45;;;;;;;7.10;5.87;;;2.00;96.50;;;;;;5062021;28;20347;-86
2021/01/18 03:44:11;;;;;;;8.90;5.83;;;2.00;96.30;;;;;;5060288;28;20225;-82
2021/01/18 03:46:37;;;;;;;10.00;5.27;;;2.00;96.10;;;;;;5047432;28;20255;-82
2021/01/18 03:49:04;;;;;;;8.63;5.70;;;2.10;96.00;;;;;;5045899;28;20222;-80
2021/01/18 03:51:31;;;;;;;7.20;5.30;;;2.10;95.90;;;;;;5045670;28;20545;-81
2021/01/18 03:53:57;;;;;;;7.73;6.10;;;2.10;95.80;;;;;;5050932;28;20221;-82
2021/01/18 03:56:25;;;;;;;9.37;6.00;;;2.00;96.00;;;;;;5043101;28;20289;-81
2021/01/18 03:58:51;;;;;;;7.90;5.70;;;2.10;95.90;;;;;;5042229;28;20226;-82
2021/01/18 04:01:17;;;;;;;6.03;5.43;;;2.10;96.00;;;;;;5044773;28;20197;-84
2021/01/18 04:03:44;;;;;;;7.33;5.80;;;2.10;95.90;;;;;;5046371;28;20612;-81
2021/01/18 04:06:10;;;;;;;9.77;5.67;;;2.10;95.80;;;;;;5047984;28;20194;-81
2021/01/18 04:08:36;;;;;;;6.50;5.37;;;2.20;95.60;;;;;;5044898;28;20234;-84
2021/01/18 04:11:03;;;;;;;6.83;5.50;;;2.20;95.30;;;;;;5050485;28;20288;-81
2021/01/18 04:13:30;;;;;;;6.83;5.33;;;2.10;95.20;;;;;;5042312;28;20204;-81
2021/01/18 04:15:56;;;;;;;8.77;5.80;;;2.10;95.30;;;;;;5040796;28;20206;-83
2021/01/18 04:18:22;;;;;;;7.53;5.33;;;2.10;95.40;;;;;;5042295;28;20289;-82
2021/01/18 04:20:49;;;;;;;8.80;5.13;;;2.10;95.40;;;;;;5045338;28;20349;-84
2021/01/18 04:23:15;;;;;;;7.40;5.43;;;2.10;95.50;;;;;;5043828;28;20213;-82
2021/01/18 04:25:41;;;;;;;8.63;5.70;;;2.10;95.30;;;;;;5038645;28;20208;-82
2021/01/18 04:28:08;;;;;;;7.30;4.80;;;2.10;95.30;;;;;;5038798;28;20317;-82
2021/01/18 04:30:37;;;;;;;7.53;5.37;;;2.10;95.10;;;;;;5046464;28;20222;-83
2021/01/18 04:33:06;;;;;;;6.93;4.87;;;2.10;95.20;;;;;;5040210;28;20194;-80
2021/01/18 04:35:34;;;;;;;7.03;5.03;;;2.10;95.20;;;;;;5039604;28;20228;-86
2021/01/18 04:38:01;;;;;;;6.30;5.10;;;2.00;95.30;;;;;;5035093;28;20203;-82
2021/01/18 04:40:29;;;;;;;6.73;5.00;;;2.00;95.60;;;;;;5041483;28;20220;-80
2021/01/18 04:42:56;;;;;;;6.33;5.00;;;2.10;95.20;;;;;;5046641;28;20203;-80
2021/01/18 04:45:24;;;;;;;7.70;5.13;;;2.10;95.10;;;;;;5036939;28;20236;-82
2021/01/18 04:47:52;;;;;;;6.43;5.03;;;2.10;94.90;;;;;;5045550;28;20242;-81
2021/01/18 04:50:21;;;;;;;5.90;4.73;;;2.10;95.30;;;;;;5047384;28;20653;-81
2021/01/18 04:52:50;;;;;;;5.50;4.90;;;2.00;95.40;;;;;;5040576;28;20197;-82
2021/01/18 04:55:27;;;;;;;7.33;4.90;;;2.00;95.40;;;;;;5040929;28;20238;-80
2021/01/18 04:58:05;;;;;;;7.53;5.00;;;2.00;95.50;;;;;;5039146;28;20205;-83
2021/01/18 05:00:39;;;;;;;7.57;5.23;;;2.10;95.50;;;;;;5038246;28;20265;-82
2021/01/18 05:03:08;;;;;;;8.57;5.07;;;2.00;95.40;;;;;;5038644;28;20231;-85
2021/01/18 05:05:54;;;;;;;8.13;5.00;;;2.00;95.50;;;;;;5040471;28;20218;-84
2021/01/18 05:08:42;;;;;;;9.90;5.47;;;2.00;95.80;;;;;;4997232;28;20228;-82
2021/01/18 05:11:10;;;;;;;8.00;5.30;;;2.00;96.00;;;;;;5039087;28;20248;-82
2021/01/18 05:13:37;;;;;;;7.67;5.20;;;1.90;96.20;;;;;;5040728;28;20258;-80
2021/01/18 05:16:06;;;;;;;7.00;5.23;;;1.90;96.40;;;;;;5042761;28;20212;-81
2021/01/18 05:18:35;;;;;;;8.80;5.40;;;1.90;96.50;;;;;;5042896;28;20206;-81
2021/01/18 05:21:02;;;;;;;10.00;4.90;;;1.90;96.70;;;;;;5042087;28;20206;-80
2021/01/18 05:23:28;;;;;;;6.60;4.80;;;1.90;97.00;;;;;;5037133;28;20286;-81
2021/01/18 05:26:19;;;;;;;8.13;5.70;;;1.80;97.00;;;;;;5038682;28;20576;-80
2021/01/18 05:28:47;;;;;;;8.93;5.87;;;1.70;97.00;;;;;;5044254;28;20283;-81
2021/01/18 05:31:33;;;;;;;6.73;5.40;;;1.60;97.30;;;;;;5039895;28;20192;-81
2021/01/18 05:34:01;;;;;;;7.20;5.53;;;1.60;97.40;;;;;;5041640;28;20226;-85
2021/01/18 05:36:36;;;;;;;7.47;5.57;;;1.60;97.20;;;;;;5043595;28;20659;-81
2021/01/18 05:39:10;;;;;;;7.87;5.40;;;1.60;97.60;;;;;;5043232;28;20225;-82
2021/01/18 05:41:37;;;;;;;7.97;5.20;;;1.60;97.40;;;;;;5044584;28;20621;-82
2021/01/18 05:44:05;;;;;;;8.23;5.77;;;1.60;97.20;;;;;;5057366;28;20235;-80
2021/01/18 05:46:32;;;;;;;8.70;5.73;;;1.80;96.90;;;;;;5039358;28;20401;-85
2021/01/18 05:49:09;;;;;;;8.57;5.70;;;1.90;96.70;;;;;;5043973;28;20238;-80
2021/01/18 05:51:35;;;;;;;8.23;5.60;;;1.80;96.30;;;;;;5047289;28;20207;-85
2021/01/18 05:54:04;;;;;;;9.80;5.70;;;1.80;96.60;;;;;;5038183;28;20233;-80
2021/01/18 05:56:40;;;;;;;10.63;5.77;;;1.80;96.40;;;;;;5036109;28;20215;-80
2021/01/18 05:59:21;;;;;;;8.23;5.67;;;1.90;96.60;;;;;;5041263;28;20224;-80
2021/01/18 06:01:48;;;;;;;7.60;5.20;;;1.80;96.20;;;;;;5047399;28;20203;-80
2021/01/18 06:04:16;;;;;;;7.60;5.40;;;1.90;96.20;;;;;;5047355;28;20221;-86
2021/01/18 06:06:51;;;;;;;6.53;5.20;;;1.90;96.30;;;;;;5060003;28;20212;-80
2021/01/18 06:09:18;;;;;;;8.13;5.63;;;1.90;96.10;;;;;;5038473;28;20757;-82
2021/01/18 06:11:44;;;;;;;9.43;5.47;;;1.90;95.90;;;;;;5040168;28;20198;-84
2021/01/18 06:14:10;;;;;;;7.03;5.07;;;1.80;96.00;;;;;;5042744;28;20222;-83
2021/01/18 06:16:39;;;;;;;8.07;5.37;;;1.80;96.20;;;;;;5046481;28;20293;-81
2021/01/18 06:19:08;;;;;;;8.00;5.63;;;1.80;96.40;;;;;;5040110;28;20501;-81
2021/01/18 06:21:44;;;;;;;8.90;5.30;;;1.80;96.40;;;;;;5035549;28;20233;-87
2021/01/18 06:24:21;;;;;;;8.40;5.33;;;2.00;96.10;;;;;;5044685;28;20233;-81
2021/01/18 06:26:49;;;;;;;7.30;5.00;;;1.90;95.90;;;;;;5049976;28;20537;-80
2021/01/18 06:29:41;;;;;;;9.80;5.33;;;1.90;96.30;;;;;;5040404;28;20242;-82
2021/01/18 06:32:10;;;;;;;7.20;5.13;;;1.90;96.20;;;;;;5042942;28;20213;-81
2021/01/18 06:35:21;;;;;;;8.50;5.33;;;1.90;96.10;;;;;;5052338;28;20251;-80
2021/01/18 06:37:58;;;;;;;7.63;5.13;;;1.90;96.00;;;;;;5050862;28;20647;-83
2021/01/18 06:40:34;;;;;;;6.70;5.03;;;1.90;95.80;;;;;;5056375;28;20683;-79
2021/01/18 06:43:11;;;;;;;7.53;5.07;;;1.90;95.90;;;;;;5058268;28;20547;-81
2021/01/18 06:45:41;;;;;;;6.00;4.43;;;2.00;95.90;;;;;;5049563;28;20282;-80
2021/01/18 06:48:09;;;;;;;6.97;5.13;;;2.10;95.70;;;;;;5054698;28;20275;-82
2021/01/18 06:50:37;;;;;;;6.47;5.17;;;2.10;95.40;;;;;;5049624;28;20831;-81
2021/01/18 06:53:16;;;;;;;7.43;5.30;;;2.00;95.60;;;;;;5039546;28;20206;-80
2021/01/18 06:56:06;;;;;;;7.17;5.80;;;2.00;95.90;;;;;;5030870;28;20227;-79
2021/01/18 06:58:35;;;;;;;7.67;5.60;;;2.00;95.80;;;;;;5039719;28;20217;-86
2021/01/18 07:01:03;;;;;;;8.43;5.53;;;2.10;95.50;;;;;;5044866;28;20371;-84
2021/01/18 07:03:40;;;;;;;8.23;5.73;;;2.10;95.60;;;;;;5049955;28;20213;-83
2021/01/18 07:06:40;;;;;;;9.47;7.10;;;2.00;95.50;;;;;;5047575;28;20204;-85
2021/01/18 07:09:09;;;;;;;7.60;5.97;;;1.90;95.70;;;;;;4970848;28;20279;-85
2021/01/18 07:11:35;;;;;;;6.77;5.13;;;2.00;95.70;;;;;;4971682;28;20208;-85
2021/01/18 07:14:05;;;;;;;9.50;5.57;;;2.00;95.60;;;;;;5001679;28;20273;-86
2021/01/18 07:16:32;;;;;;;6.30;4.87;;;2.00;95.90;;;;;;5049492;28;20214;-82
2021/01/18 07:19:00;;;;;;;10.43;5.40;;;2.10;95.10;;;;;;5050000;28;20384;-82
2021/01/18 07:21:30;;;;;;;7.57;5.83;;;2.10;95.10;;;;;;5056179;28;20220;-84
2021/01/18 07:23:59;;;;;;;7.87;5.90;;;2.10;95.20;;;;;;5047886;28;20312;-89
2021/01/18 07:26:53;;;;;;;8.70;6.40;;;2.10;95.50;;;;;;5046945;28;20194;-85
2021/01/18 07:29:22;;;;;;;7.13;5.70;;;2.10;95.50;;;;;;5041853;28;20240;-90
2021/01/18 07:31:54;;;;;;;8.57;6.10;;;2.10;95.60;;;;;;5045708;28;20201;-82
2021/01/18 07:34:22;;;;;;;6.60;5.53;;;2.10;95.60;;;;;;5044232;28;20236;-83
2021/01/18 07:36:49;;;;;;;8.77;6.20;;;2.10;95.30;;;;;;5043722;28;20227;-85
2021/01/18 07:39:43;;;;;;;7.20;5.63;;;2.10;95.60;;;;;;5054801;28;20242;-89
2021/01/18 07:42:39;;;;;;;9.37;6.13;;;2.20;95.60;;;;;;5046353;28;20201;-87
2021/01/18 07:45:14;;;;;;;8.90;5.60;;;2.10;95.80;;;;;;5047668;28;20234;-84
2021/01/18 07:48:07;;;;;;;9.77;6.27;;;2.10;95.60;;;;;;5040357;28;20224;-83
2021/01/18 07:50:35;;;;;;;8.17;6.00;;;2.20;95.60;;;;;;5048428;28;20225;-85
2021/01/18 07:53:04;;;;;;;8.23;6.20;;;2.10;95.90;;;;;;5046039;28;20196;-83
2021/01/18 07:55:36;;;;;;;7.50;6.20;;;2.10;95.80;;;;;;5049701;28;20221;-83
2021/01/18 08:04:19;;;;;;;9.77;6.43;;;2.00;96.20;;;;;;5321096;22;20233;-85
2021/01/18 08:07:07;;;;;;;9.60;6.60;;;2.00;96.00;;;;;;5024566;28;20219;-86
2021/01/18 08:09:34;;;;;;;7.73;6.17;;;2.10;96.10;;;;;;5022264;28;20235;-87
2021/01/18 08:12:31;;;;;;;10.13;6.20;;;2.10;95.80;;;;;;5028530;28;20259;-82
2021/01/18 08:14:58;;;;;;;8.37;6.10;;;2.00;95.90;;;;;;5026035;28;20226;-83
2021/01/18 08:17:24;;;;;;;7.13;5.47;;;2.10;95.90;;;;;;5027958;28;20209;-82
2021/01/18 08:20:08;;;;;;;11.43;6.50;;;2.10;95.60;;;;;;5035965;28;20233;-86
2021/01/18 08:22:34;;;;;;;8.90;5.90;;;2.10;95.60;;;;;;5033464;28;20190;-87
2021/01/18 08:25:01;;;;;;;8.47;5.70;;;2.00;95.90;;;;;;5047642;28;20283;-92
2021/01/18 08:27:55;;;;;;;10.23;6.00;;;2.00;95.90;;;;;;5043336;28;20590;-87
2021/01/18 08:30:31;;;;;;;8.80;5.63;;;1.90;96.10;;;;;;4971563;28;20287;-82
2021/01/18 08:33:16;;;;;;;10.03;5.67;;;2.00;96.10;;;;;;5042386;28;20192;-85
2021/01/18 08:35:54;;;;;;;11.80;5.97;;;1.90;95.80;;;;;;5030456;28;20307;-85
2021/01/18 08:38:24;;;;;;;11.43;6.00;;;2.00;95.50;;;;;;5022435;28;20276;-84
2021/01/18 08:40:52;;;;;;;8.30;6.13;;;2.00;95.80;;;;;;5033828;28;20198;-85
2021/01/18 08:43:20;;;;;;;8.63;5.60;;;2.00;95.40;;;;;;5034809;28;20252;-80
2021/01/18 08:45:48;;;;;;;8.17;5.27;;;2.10;95.60;;;;;;5030459;28;20293;-80
2021/01/18 08:48:20;;;;;;;10.00;5.83;;;2.20;95.10;;;;;;5030434;28;20225;-81
2021/01/18 08:50:52;;;;;;;9.00;5.50;;;2.10;95.10;;;;;;5035588;28;20743;-85
2021/01/18 08:53:30;;;;;;;10.13;5.77;;;2.20;95.10;;;;;;5026515;28;20198;-86
2021/01/18 08:55:59;;;;;;;6.77;4.83;;;2.10;95.00;;;;;;5026598;28;20202;-83
2021/01/18 08:58:33;;;;;;;8.80;5.27;;;2.20;94.70;;;;;;5037691;28;20559;-83
2021/01/18 09:01:01;;;;;;;7.80;4.90;;;2.10;94.80;;;;;;5086215;22;20232;-82
2021/01/18 09:03:28;;;;;;;9.50;4.97;;;2.20;95.40;;;;;;5035983;28;20197;-85
2021/01/18 09:05:59;;;;;;;7.83;5.30;;;2.20;95.10;;;;;;5047396;28;20194;-86
2021/01/18 09:08:45;;;;;;;12.17;5.33;;;2.10;95.20;;;;;;5047888;28;20676;-85
2021/01/18 09:11:13;;;;;;;7.17;4.90;;;2.10;95.10;;;;;;5060210;28;20236;-82
2021/01/18 09:24:33;;;;;;;7.47;4.43;;;2.20;95.10;;;;;;5011074;28;20229;-84
2021/01/18 09:30:48;;;;;;;7.10;4.13;;;2.20;94.50;;;;;;5001702;28;20294;-86
2021/01/18 09:33:14;;;;;;;8.10;4.47;;;2.20;94.50;;;;;;5002171;28;20635;-87
2021/01/18 09:35:42;;;;;;;6.83;4.63;;;2.20;94.50;;;;;;5007094;28;20313;-81
2021/01/18 09:38:12;;;;;;;6.00;4.07;;;2.30;94.30;;;;;;5009440;28;20198;-84
2021/01/18 09:40:43;;;;;;;8.67;3.80;;;2.30;94.20;;;;;;5008913;28;20804;-86
2021/01/18 09:43:11;;;;;;;5.67;4.10;;;2.30;94.40;;;;;;5007448;28;20212;-80
2021/01/18 09:45:40;;;;;;;6.00;4.13;;;2.40;94.00;;;;;;5026629;28;20225;-82
2021/01/18 09:48:08;;;;;;;6.27;4.20;;;2.40;93.50;;;;;;5032243;28;20244;-87
2021/01/18 09:50:36;;;;;;;7.97;4.30;;;2.30;93.50;;;;;;5020690;28;20282;-85
2021/01/18 09:53:05;;;;;;;7.00;4.40;;;2.40;94.10;;;;;;5019290;28;20202;-82
2021/01/18 09:55:33;;;;;;;7.47;4.53;;;2.50;93.40;;;;;;5018985;28;20290;-82
2021/01/18 09:58:06;;;;;;;5.57;4.20;;;2.60;93.00;;;;;;5026933;28;20237;-79
2021/01/18 10:00:34;;;;;;;8.00;4.07;;;2.70;92.70;;;;;;5019857;28;20233;-80
2021/01/18 10:03:02;;;;;;;6.37;3.30;;;2.90;92.20;;;;;;5020106;28;20202;-81
2021/01/18 10:05:32;;;;;;;6.73;3.73;;;3.00;91.90;;;;;;5024182;28;20693;-81
2021/01/18 10:08:03;;;;;;;6.50;3.47;;;3.10;90.90;;;;;;5028248;28;20769;-80
2021/01/18 10:10:29;;;;;;;6.43;4.40;;;3.20;90.70;;;;;;5000310;28;20770;-81
2021/01/18 10:12:56;;;;;;;7.23;4.03;;;3.20;90.60;;;;;;5009257;28;20677;-81
2021/01/18 10:15:27;;;;;;;5.77;3.40;;;3.40;90.40;;;;;;5028279;28;20229;-81
2021/01/18 10:17:55;;;;;;;6.03;3.77;;;3.40;89.20;;;;;;5036568;28;20658;-80
2021/01/18 10:20:24;;;;;;;6.30;4.30;;;3.30;90.00;;;;;;5007525;28;20226;-83
2021/01/18 10:22:51;;;;;;;10.87;5.87;;;3.20;90.40;;;;;;5002756;28;20670;-83
2021/01/18 10:25:18;;;;;;;5.83;3.60;;;3.20;90.40;;;;;;5007905;28;20294;-80
2021/01/18 10:27:52;;;;;;;5.23;3.73;;;3.20;90.00;;;;;;5002300;28;20226;-79
2021/01/18 10:30:21;;;;;;;7.37;4.20;;;3.00;90.30;;;;;;5010897;28;20226;-80
2021/01/18 10:32:49;;;;;;;9.00;4.80;;;3.00;90.50;;;;;;5020695;28;20278;-82
2021/01/18 10:35:26;;;;;;;6.33;4.30;;;2.90;90.30;;;;;;5003655;28;20215;-85
2021/01/18 10:37:53;;;;;;;6.33;3.77;;;3.00;90.40;;;;;;5001031;28;21029;-80
2021/01/18 10:40:23;;;;;;;6.80;4.30;;;3.00;90.30;;;;;;5012398;28;20494;-83
2021/01/18 10:42:51;;;;;;;7.97;4.17;;;3.00;90.00;;;;;;5018087;28;20213;-79
2021/01/18 10:45:19;;;;;;;6.43;4.37;;;3.00;90.00;;;;;;5002220;28;20227;-83
2021/01/18 10:47:57;;;;;;;5.83;4.50;;;2.90;89.80;;;;;;5010974;28;20239;-82
2021/01/18 10:50:28;;;;;;;8.47;5.20;;;3.00;90.40;;;;;;5002434;28;20600;-82
2021/01/18 10:53:02;;;;;;;8.23;4.80;;;3.00;90.50;;;;;;5005556;28;20207;-77
2021/01/18 10:55:28;;;;;;;6.93;4.53;;;2.90;90.50;;;;;;4992782;28;20590;-82
2021/01/18 10:57:54;;;;;;;17.43;5.10;;;2.90;90.80;;;;;;4995891;28;20803;-79
2021/01/18 11:00:22;;;;;;;7.40;4.70;;;2.90;90.70;;;;;;5028919;28;20788;-79
2021/01/18 11:03:01;;;;;;;7.77;4.30;;;3.00;91.00;;;;;;5037715;28;20202;-83
2021/01/18 11:05:33;;;;;;;6.80;4.40;;;3.10;90.70;;;;;;5037749;28;20226;-80
2021/01/18 11:08:00;;;;;;;8.17;4.50;;;2.90;90.30;;;;;;5040910;28;20363;-78
2021/01/18 11:10:28;;;;;;;6.83;4.43;;;2.90;90.40;;;;;;5038227;28;20714;-80
2021/01/18 11:13:05;;;;;;;8.67;4.30;;;2.90;90.50;;;;;;5043753;28;20486;-83
2021/01/18 11:15:39;;;;;;;5.37;4.30;;;2.80;90.50;;;;;;5045359;28;20227;-79
2021/01/18 11:18:09;;;;;;;8.20;4.50;;;2.80;90.70;;;;;;5042004;28;20208;-77
2021/01/18 11:20:36;;;;;;;7.47;4.30;;;3.00;90.30;;;;;;5043050;28;20315;-79
2021/01/18 11:23:03;;;;;;;6.27;4.20;;;3.10;90.80;;;;;;5048512;28;20194;-79
2021/01/18 11:25:30;;;;;;;5.97;4.10;;;3.10;90.20;;;;;;5049872;28;20233;-81
2021/01/18 11:28:10;;;;;;;9.50;4.10;;;3.00;90.40;;;;;;5046598;28;20633;-79
2021/01/18 11:30:37;;;;;;;8.07;4.40;;;3.30;90.10;;;;;;5045293;28;20221;-84
2021/01/18 11:33:04;;;;;;;4.87;4.00;;;3.30;89.20;;;;;;5043171;28;20201;-83
2021/01/18 11:35:31;;;;;;;7.03;4.07;;;3.40;90.20;;;;;;5045616;28;20232;-80
2021/01/18 11:37:58;;;;;;;6.17;4.00;;;3.60;88.80;;;;;;5044438;28;20217;-85
2021/01/18 11:40:25;;;;;;;7.10;3.83;;;3.90;87.90;;;;;;5047072;28;20381;-87
2021/01/18 11:42:51;;;;;;;9.60;4.10;;;3.80;86.00;;;;;;5052423;28;20202;-87
2021/01/18 11:45:18;;;;;;;6.63;4.60;;;3.90;88.10;;;;;;5055066;28;20233;-89
2021/01/18 11:47:45;;;;;;;9.00;4.23;;;3.80;87.30;;;;;;5048272;28;20229;-84
2021/01/18 11:50:11;;;;;;;11.67;4.13;;;3.80;85.80;;;;;;5039352;28;20228;-87
2021/01/18 11:52:43;;;;;;;10.20;4.43;;;3.90;85.50;;;;;;5046618;28;20718;-85
2021/01/18 11:55:11;;;;;;;5.93;3.63;;;3.90;86.60;;;;;;5046970;28;20221;-83
2021/01/18 11:57:41;;;;;;;6.47;4.07;;;4.10;83.80;;;;;;5052452;28;20198;-86
2021/01/18 12:00:08;;;;;;;5.73;3.80;;;3.80;85.80;;;;;;5052198;28;20411;-87
2021/01/18 12:02:54;;;;;;;4.80;3.10;;;3.80;83.70;;;;;;5056797;28;20280;-82
2021/01/18 12:05:25;;;;;;;6.13;3.20;;;3.90;83.20;;;;;;5038709;28;20226;-89
2021/01/18 12:07:52;;;;;;;5.90;3.20;;;3.90;82.70;;;;;;5053775;28;20216;-86
2021/01/18 12:10:19;;;;;;;6.47;3.90;;;3.80;81.80;;;;;;5052864;28;20232;-87
2021/01/18 12:12:45;;;;;;;6.87;3.83;;;3.80;81.70;;;;;;5047677;28;20201;-82
2021/01/18 12:15:12;;;;;;;6.13;4.10;;;3.70;83.30;;;;;;5043363;28;20232;-82
2021/01/18 12:17:39;;;;;;;7.50;3.90;;;4.00;83.10;;;;;;5040572;28;20963;-82
2021/01/18 12:20:07;;;;;;;4.70;3.40;;;4.10;82.40;;;;;;5034033;28;20228;-81
2021/01/18 12:22:33;;;;;;;7.17;3.53;;;4.20;80.00;;;;;;5038875;28;20198;-83
2021/01/18 12:25:00;;;;;;;5.40;3.23;;;4.40;79.30;;;;;;5037393;28;20229;-82
2021/01/18 12:27:27;;;;;;;7.53;3.67;;;4.40;78.70;;;;;;5043449;28;20297;-85
2021/01/18 12:29:54;;;;;;;6.53;3.13;;;4.50;80.20;;;;;;5045821;28;20252;-83
2021/01/18 12:32:20;;;;;;;5.80;3.27;;;4.70;77.50;;;;;;5040190;28;20194;-82
2021/01/18 12:34:46;;;;;;;4.13;2.93;;;4.40;77.40;;;;;;5034484;28;20226;-85
2021/01/18 12:37:13;;;;;;;4.60;3.10;;;4.60;77.80;;;;;;5039902;28;20198;-84
2021/01/18 12:39:39;;;;;;;4.70;3.17;;;4.40;77.50;;;;;;5035008;28;20225;-85
2021/01/18 12:42:07;;;;;;;4.87;2.93;;;4.20;78.60;;;;;;5038717;28;20198;-83
2021/01/18 12:44:33;;;;;;;5.97;3.23;;;3.90;78.30;;;;;;5043878;28;20229;-83
2021/01/18 12:47:00;;;;;;;5.30;2.80;;;4.10;79.30;;;;;;5038020;28;20202;-82
2021/01/18 12:49:27;;;;;;;4.20;2.70;;;4.20;80.00;;;;;;5039746;28;21212;-84
2021/01/18 12:51:53;;;;;;;5.60;2.83;;;4.10;78.30;;;;;;5043449;28;20208;-81
2021/01/18 12:54:19;;;;;;;4.37;2.80;;;4.10;78.80;;;;;;5040636;28;20233;-83
2021/01/18 12:56:47;;;;;;;5.13;3.10;;;4.10;78.40;;;;;;5040956;28;20218;-82
2021/01/18 12:59:14;;;;;;;3.07;2.60;;;4.10;79.10;;;;;;5045089;28;20234;-85
2021/01/18 13:01:41;;;;;;;5.17;2.80;;;4.20;78.90;;;;;;5048228;28;20768;-85
2021/01/18 13:04:08;;;;;;;6.23;3.03;;;4.20;79.10;;;;;;5050337;28;20763;-85
2021/01/18 13:06:36;;;;;;;4.80;3.17;;;4.10;79.90;;;;;;5059327;28;20277;-87
2021/01/18 13:09:03;;;;;;;6.70;3.30;;;3.90;79.00;;;;;;5047924;28;20229;-81
2021/01/18 13:11:30;;;;;;;5.63;3.40;;;3.80;80.10;;;;;;5040294;28;20283;-82
2021/01/18 13:13:57;;;;;;;5.20;2.70;;;3.90;80.60;;;;;;5042733;28;20240;-87
2021/01/18 13:16:26;;;;;;;3.93;3.00;;;4.10;81.50;;;;;;5042074;28;20208;-84
2021/01/18 13:19:02;;;;;;;3.60;2.97;;;3.90;80.10;;;;;;5040281;28;20234;-83
2021/01/18 13:21:28;;;;;;;4.27;3.37;;;4.00;80.60;;;;;;5042007;28;20204;-83
2021/01/18 13:23:56;;;;;;;5.03;3.47;;;3.90;80.90;;;;;;5041665;28;20305;-88
2021/01/18 13:26:23;;;;;;;4.47;3.50;;;4.10;81.20;;;;;;5037203;28;20208;-83
2021/01/18 13:28:52;;;;;;;4.30;3.10;;;4.10;80.30;;;;;;5040750;28;20316;-84
2021/01/18 13:31:21;;;;;;;4.17;2.90;;;4.40;80.10;;;;;;5045496;28;20266;-82
2021/01/18 13:33:49;;;;;;;6.67;3.57;;;4.40;79.00;;;;;;5042167;28;20222;-83